Other Surface Observations
Issued by NWS Missoula, MT

Home | Current Version | Previous Version | Text Only | Print | Product List | Glossary On
Versions: 1 2 3 4 5 6 7 8 9 10 11 12 13 14 15 16 17 18 19 20 21 22 23 24 25 26 27 28 29 30 31 32 33 34 35 36 37 38 39 40 41 42 43 44 45 46 47 48 49 50
000
SXUS55 KMSO 280053
OSOMSO
MONTANA AWOS SUMMARY
NATIONAL WEATHER SERVICE MISSOULA MT
652 PM MDT THU AUG 27 2015

Montana AWOS Reports

LAUREL      |K6S8 280035Z AUTO 21012G19KT 10SM 23/06 A3005 RMK AO1 T02280061
ROUNDUP     |KRPX 280035Z AUTO 00000KT 25SM 29/06 A2992 RMK AO1 T02940061
MALTA       |KM75 280035Z AUTO 00000KT 15SM 28/13 A2985 RMK AO1 T02830133




USA.gov is the U.S. government's official web portal to all federal, state and local government web resources and services.